Time;durP1;ratioP1;P1;durP2;ratioP2;P2;SDS_P1;SDS_P2;PMS_P1;PMS_P2;Temp;Humidity;BMP_temperature;BMP_pressure;BME280_temperature;BME280_humidity;BME280_pressure;Samples;Min_cycle;Max_cycle;Signal;HPM_P1;HPM_P2
2021/06/30 00:02:18;;;;;;;17.65;9.73;;;14.90;99.90;;;;;;5050973;28;20090;-79
2021/06/30 00:04:44;;;;;;;22.88;10.63;;;14.80;99.90;;;;;;5051775;28;20036;-79
2021/06/30 00:07:11;;;;;;;23.35;11.05;;;14.80;99.90;;;;;;5052254;28;20041;-79
2021/06/30 00:09:38;;;;;;;24.85;10.80;;;14.80;99.90;;;;;;5052916;28;20499;-79
2021/06/30 00:12:04;;;;;;;26.00;10.65;;;14.80;99.90;;;;;;5049748;28;20040;-80
2021/06/30 00:14:30;;;;;;;16.75;10.20;;;14.80;99.90;;;;;;5044828;28;20041;-79
2021/06/30 00:16:56;;;;;;;26.13;10.88;;;14.80;99.90;;;;;;5053310;28;20075;-79
2021/06/30 00:19:24;;;;;;;24.45;11.27;;;14.80;99.90;;;;;;5051673;28;20029;-79
2021/06/30 00:21:49;;;;;;;22.35;11.00;;;14.90;99.90;;;;;;5050209;28;20078;-79
2021/06/30 00:24:15;;;;;;;33.13;12.45;;;14.70;99.90;;;;;;5064244;28;20037;-80
2021/06/30 00:26:41;;;;;;;29.58;12.30;;;14.70;99.90;;;;;;5046270;28;20036;-78
2021/06/30 00:29:07;;;;;;;27.88;11.70;;;14.70;99.90;;;;;;5047420;28;20069;-80
2021/06/30 00:31:34;;;;;;;32.58;11.35;;;14.70;99.90;;;;;;5048674;28;20036;-79
2021/06/30 00:34:02;;;;;;;23.38;11.23;;;14.60;99.90;;;;;;5052989;28;20054;-79
2021/06/30 00:36:36;;;;;;;24.00;11.55;;;14.80;99.90;;;;;;5054811;28;20068;-80
2021/06/30 00:39:04;;;;;;;23.58;10.75;;;14.70;99.90;;;;;;5050115;28;20082;-80
2021/06/30 00:41:31;;;;;;;25.88;12.10;;;14.70;99.90;;;;;;5053170;28;20048;-79
2021/06/30 00:43:57;;;;;;;30.10;12.38;;;14.70;99.90;;;;;;5053758;28;20051;-79
2021/06/30 00:46:25;;;;;;;37.85;13.30;;;14.80;99.90;;;;;;5049312;28;20107;-79
2021/06/30 00:48:51;;;;;;;36.08;13.35;;;14.70;99.90;;;;;;5044346;28;20029;-80
2021/06/30 00:51:17;;;;;;;24.52;12.80;;;14.80;99.90;;;;;;5045942;28;20530;-80
2021/06/30 00:53:43;;;;;;;28.75;13.18;;;14.80;99.90;;;;;;5051094;28;20028;-79
2021/06/30 00:56:09;;;;;;;35.15;13.25;;;14.80;99.90;;;;;;5050378;28;20029;-79
2021/06/30 00:58:35;;;;;;;27.73;12.75;;;14.80;99.90;;;;;;5047537;28;20357;-80
2021/06/30 01:01:00;;;;;;;36.50;12.70;;;14.80;99.90;;;;;;5050233;28;20033;-79
2021/06/30 01:03:26;;;;;;;28.13;12.43;;;14.80;99.90;;;;;;5049981;28;20250;-79
2021/06/30 01:05:52;;;;;;;29.08;11.82;;;14.80;99.90;;;;;;5047569;28;20040;-79
2021/06/30 01:08:18;;;;;;;34.30;11.85;;;14.80;99.90;;;;;;5030116;28;20049;-80
2021/06/30 01:10:44;;;;;;;28.33;10.93;;;14.90;99.90;;;;;;5047215;28;20051;-79
2021/06/30 01:13:10;;;;;;;29.70;11.60;;;14.80;99.90;;;;;;5051170;28;20545;-79
2021/06/30 01:15:55;;;;;;;24.13;10.05;;;14.80;99.90;;;;;;5050695;28;20033;-80
2021/06/30 01:18:22;;;;;;;29.35;10.38;;;14.80;99.90;;;;;;5062556;28;20083;-79
2021/06/30 01:20:48;;;;;;;25.92;10.82;;;14.80;99.90;;;;;;5031450;28;20579;-79
2021/06/30 01:23:14;;;;;;;23.60;10.35;;;14.80;99.90;;;;;;5047391;28;20063;-79
2021/06/30 01:25:40;;;;;;;25.67;9.63;;;14.80;99.90;;;;;;5046592;28;20033;-79
2021/06/30 01:28:06;;;;;;;32.20;10.88;;;14.80;99.90;;;;;;5046220;28;20540;-80
2021/06/30 01:30:32;;;;;;;20.88;10.30;;;14.80;99.90;;;;;;5030813;28;20071;-79
2021/06/30 01:32:59;;;;;;;26.80;10.68;;;14.80;99.90;;;;;;5032568;28;20064;-80
2021/06/30 01:35:26;;;;;;;22.02;9.48;;;14.80;99.90;;;;;;5049588;28;20420;-79
2021/06/30 01:37:53;;;;;;;23.92;10.45;;;14.70;99.90;;;;;;5049520;28;20041;-80
2021/06/30 01:40:21;;;;;;;25.40;11.20;;;14.70;99.90;;;;;;5049676;28;20048;-79
2021/06/30 01:42:51;;;;;;;24.02;10.77;;;14.60;99.90;;;;;;5050290;28;20044;-80
2021/06/30 01:45:18;;;;;;;26.65;10.93;;;14.70;99.90;;;;;;5046813;28;20056;-80
2021/06/30 01:47:44;;;;;;;23.70;10.57;;;14.60;99.90;;;;;;5047085;28;20060;-80
2021/06/30 01:50:11;;;;;;;25.92;11.02;;;14.60;99.90;;;;;;5048952;28;20488;-79
2021/06/30 01:52:37;;;;;;;29.20;10.60;;;14.60;99.90;;;;;;5043948;28;20067;-80
2021/06/30 01:55:05;;;;;;;22.35;10.30;;;14.60;99.90;;;;;;5046466;28;20033;-79
2021/06/30 01:57:46;;;;;;;23.80;11.52;;;14.60;99.90;;;;;;5063084;28;20033;-79
2021/06/30 02:00:14;;;;;;;25.17;10.75;;;14.60;99.90;;;;;;5048211;28;20098;-79
2021/06/30 02:02:41;;;;;;;29.05;12.68;;;14.60;99.90;;;;;;5050235;28;20035;-80
2021/06/30 02:05:10;;;;;;;31.75;12.20;;;14.50;99.90;;;;;;5042837;28;20422;-80
2021/06/30 02:07:44;;;;;;;29.02;13.20;;;14.50;99.90;;;;;;5059443;28;20041;-80
2021/06/30 02:10:12;;;;;;;19.80;9.75;;;14.50;99.90;;;;;;5044962;28;20091;-80
2021/06/30 02:12:38;;;;;;;21.85;11.02;;;14.50;99.90;;;;;;5047259;28;20033;-79
2021/06/30 02:15:10;;;;;;;18.25;10.23;;;14.50;99.90;;;;;;5034521;28;20047;-80
2021/06/30 02:17:46;;;;;;;31.55;12.18;;;14.40;99.90;;;;;;5042473;28;20493;-80
2021/06/30 02:20:12;;;;;;;25.42;12.00;;;14.40;99.90;;;;;;5049582;28;20040;-80
2021/06/30 02:22:40;;;;;;;30.23;12.52;;;14.40;99.90;;;;;;5046945;28;20551;-80
2021/06/30 02:25:16;;;;;;;30.38;13.80;;;14.40;99.90;;;;;;5044413;28;20393;-79
2021/06/30 02:27:42;;;;;;;30.30;13.57;;;14.40;99.90;;;;;;5043746;28;20346;-80
2021/06/30 02:30:17;;;;;;;28.20;12.05;;;14.40;99.90;;;;;;5044758;28;20065;-80
2021/06/30 02:32:44;;;;;;;31.00;13.15;;;14.30;99.90;;;;;;5047314;28;20039;-80
2021/06/30 02:35:15;;;;;;;38.83;13.38;;;14.30;99.90;;;;;;5046932;28;20049;-80
2021/06/30 02:37:41;;;;;;;27.60;12.73;;;14.30;99.90;;;;;;5042097;28;20043;-80
2021/06/30 02:40:10;;;;;;;34.75;13.40;;;14.20;99.90;;;;;;5049274;28;20459;-79
2021/06/30 02:42:37;;;;;;;35.00;11.65;;;14.20;99.90;;;;;;5043032;28;20441;-79
2021/06/30 02:45:05;;;;;;;29.52;12.20;;;14.20;99.90;;;;;;5049517;28;20033;-80
2021/06/30 02:47:31;;;;;;;28.45;13.32;;;14.20;99.90;;;;;;5042734;28;20082;-79
2021/06/30 02:49:57;;;;;;;31.23;12.60;;;14.20;99.90;;;;;;5044814;28;20454;-80
2021/06/30 02:52:23;;;;;;;29.05;12.05;;;14.20;99.90;;;;;;5044379;28;20530;-79
2021/06/30 02:54:49;;;;;;;29.80;11.68;;;14.20;99.90;;;;;;5051253;28;20044;-80
2021/06/30 02:57:15;;;;;;;24.45;10.90;;;14.20;99.90;;;;;;5050926;28;20060;-80
2021/06/30 02:59:40;;;;;;;32.00;10.95;;;14.20;99.90;;;;;;5045396;28;20473;-80
2021/06/30 03:02:06;;;;;;;32.70;12.43;;;14.10;99.90;;;;;;5050137;28;20422;-80
2021/06/30 03:04:32;;;;;;;24.83;10.30;;;14.20;99.90;;;;;;5051207;28;20121;-80
2021/06/30 03:06:58;;;;;;;28.40;11.82;;;14.20;99.90;;;;;;5048373;28;20040;-79
2021/06/30 03:09:24;;;;;;;26.38;11.95;;;14.20;99.90;;;;;;5049088;28;20116;-79
2021/06/30 03:11:50;;;;;;;37.00;12.82;;;14.10;99.90;;;;;;5050657;28;20056;-80
2021/06/30 03:14:16;;;;;;;31.98;12.05;;;14.20;99.90;;;;;;5046694;28;20029;-80
2021/06/30 03:16:43;;;;;;;29.42;12.23;;;14.10;99.90;;;;;;5048727;28;20033;-79
2021/06/30 03:19:09;;;;;;;38.45;13.65;;;14.10;99.90;;;;;;5047012;28;20111;-80
2021/06/30 03:21:35;;;;;;;33.22;13.38;;;14.10;99.90;;;;;;5053595;28;20071;-79
2021/06/30 03:24:00;;;;;;;31.50;13.75;;;14.10;99.90;;;;;;5049781;28;20072;-80
2021/06/30 03:26:26;;;;;;;28.52;12.57;;;14.20;99.90;;;;;;5051143;28;20116;-79
2021/06/30 03:28:52;;;;;;;34.40;12.38;;;14.10;99.90;;;;;;5051607;28;20038;-79
2021/06/30 03:31:18;;;;;;;30.52;12.75;;;14.10;99.90;;;;;;5048822;28;20059;-80
2021/06/30 03:33:43;;;;;;;28.75;12.73;;;14.20;99.90;;;;;;5052782;28;20506;-80
2021/06/30 03:36:10;;;;;;;28.13;12.73;;;14.20;99.90;;;;;;5047651;28;20799;-80
2021/06/30 03:38:36;;;;;;;31.95;13.43;;;14.20;99.90;;;;;;5047737;28;20041;-80
2021/06/30 03:41:02;;;;;;;32.35;13.55;;;14.20;99.90;;;;;;5045432;28;20088;-79
2021/06/30 03:43:28;;;;;;;26.35;12.60;;;14.20;99.90;;;;;;5066023;28;20037;-79
2021/06/30 03:45:54;;;;;;;24.77;11.73;;;14.20;99.90;;;;;;5046218;28;20047;-79
2021/06/30 03:48:20;;;;;;;31.77;13.00;;;14.20;99.90;;;;;;5052610;28;20037;-80
2021/06/30 03:50:45;;;;;;;28.92;12.23;;;14.20;99.90;;;;;;5049718;28;20037;-80
2021/06/30 03:53:11;;;;;;;24.40;12.05;;;14.40;99.90;;;;;;5049614;28;20383;-79
2021/06/30 03:55:37;;;;;;;31.02;12.50;;;14.20;99.90;;;;;;5047759;28;20064;-79
2021/06/30 03:58:03;;;;;;;30.67;11.55;;;14.20;99.90;;;;;;5050640;28;20476;-79
2021/06/30 04:00:28;;;;;;;32.35;11.98;;;14.20;99.90;;;;;;5049050;28;20049;-80
2021/06/30 04:02:54;;;;;;;36.58;11.63;;;14.20;99.90;;;;;;5050774;28;20449;-79
2021/06/30 04:05:21;;;;;;;24.48;11.95;;;14.20;99.90;;;;;;5053290;28;20029;-79
2021/06/30 04:07:47;;;;;;;23.20;11.23;;;14.20;99.90;;;;;;5052124;28;20139;-80
2021/06/30 04:10:15;;;;;;;28.63;12.35;;;14.20;99.90;;;;;;5052917;28;20060;-79
2021/06/30 04:12:42;;;;;;;30.65;12.05;;;14.20;99.90;;;;;;5054495;28;20037;-80
2021/06/30 04:15:08;;;;;;;22.65;11.57;;;14.20;99.90;;;;;;5052672;28;20098;-79
2021/06/30 04:17:34;;;;;;;26.35;11.82;;;14.20;99.90;;;;;;5050445;28;20033;-79
2021/06/30 04:20:03;;;;;;;28.52;11.38;;;14.20;99.90;;;;;;5048659;28;20037;-80
2021/06/30 04:22:29;;;;;;;24.30;11.20;;;14.20;99.90;;;;;;5076998;28;20045;-79
2021/06/30 04:24:54;;;;;;;31.17;11.75;;;14.20;99.90;;;;;;5047699;28;20039;-80
2021/06/30 04:27:20;;;;;;;38.05;12.93;;;14.20;99.90;;;;;;5048512;28;20060;-80
2021/06/30 04:29:46;;;;;;;32.97;12.38;;;14.20;99.90;;;;;;5051797;28;20041;-79
2021/06/30 04:32:12;;;;;;;29.40;13.68;;;14.20;99.90;;;;;;5049902;28;20041;-80
2021/06/30 04:34:37;;;;;;;33.83;13.25;;;14.20;99.90;;;;;;5052247;28;20037;-79
2021/06/30 04:37:03;;;;;;;32.05;13.07;;;14.20;99.90;;;;;;5051064;28;20132;-79
2021/06/30 04:39:29;;;;;;;41.70;13.73;;;14.20;99.90;;;;;;5060424;28;20064;-79
2021/06/30 04:41:55;;;;;;;32.67;13.43;;;14.20;99.90;;;;;;5046730;28;20033;-80
2021/06/30 04:44:21;;;;;;;31.05;12.75;;;14.20;99.90;;;;;;5048351;28;20037;-79
2021/06/30 04:46:46;;;;;;;34.45;13.63;;;14.30;99.90;;;;;;5048571;28;20396;-80
2021/06/30 04:49:12;;;;;;;29.77;12.98;;;14.20;99.90;;;;;;5048320;28;20377;-79
2021/06/30 04:51:38;;;;;;;36.58;13.63;;;14.30;99.90;;;;;;5028945;28;20045;-79
2021/06/30 04:54:04;;;;;;;29.65;12.25;;;14.30;99.90;;;;;;5045603;28;20033;-79
2021/06/30 04:56:39;;;;;;;30.60;11.15;;;14.30;99.90;;;;;;5048764;28;20037;-79
2021/06/30 04:59:08;;;;;;;34.63;11.43;;;14.30;99.90;;;;;;5060019;28;20120;-79
2021/06/30 05:01:35;;;;;;;33.25;12.27;;;14.30;99.90;;;;;;5042567;28;20056;-79
2021/06/30 05:04:01;;;;;;;33.45;12.40;;;14.40;99.90;;;;;;5049231;28;20095;-79
2021/06/30 05:06:26;;;;;;;29.48;11.75;;;14.40;99.90;;;;;;5045716;28;20036;-79
2021/06/30 05:08:52;;;;;;;29.08;11.80;;;14.40;99.90;;;;;;5046516;28;20052;-79
2021/06/30 05:11:18;;;;;;;31.33;11.35;;;14.40;99.90;;;;;;5046453;28;20025;-80
2021/06/30 05:13:44;;;;;;;34.05;12.00;;;14.40;99.90;;;;;;5051328;28;20040;-79
2021/06/30 05:16:10;;;;;;;25.30;10.55;;;14.40;99.90;;;;;;5033022;28;20037;-79
2021/06/30 05:18:36;;;;;;;26.95;11.00;;;14.40;99.90;;;;;;5051364;28;20515;-78
2021/06/30 05:21:02;;;;;;;30.50;11.27;;;14.40;99.90;;;;;;5050682;28;20029;-79
2021/06/30 05:23:29;;;;;;;37.15;11.15;;;14.40;99.90;;;;;;5046047;28;20037;-76
2021/06/30 05:25:55;;;;;;;29.23;10.70;;;14.50;99.90;;;;;;5047760;28;20039;-76
2021/06/30 05:28:23;;;;;;;35.78;10.88;;;14.40;99.90;;;;;;5051002;28;20112;-75
2021/06/30 05:30:49;;;;;;;36.30;10.52;;;14.50;99.90;;;;;;5050714;28;20057;-76
2021/06/30 05:33:15;;;;;;;27.02;10.25;;;14.40;99.90;;;;;;5044636;28;20122;-78
2021/06/30 05:35:41;;;;;;;29.90;10.18;;;14.50;99.90;;;;;;5051243;28;20543;-78
2021/06/30 05:38:09;;;;;;;20.75;10.27;;;14.50;99.90;;;;;;5049508;28;20366;-78
2021/06/30 05:40:35;;;;;;;26.90;9.77;;;14.60;99.90;;;;;;5050029;28;20043;-77
2021/06/30 05:43:01;;;;;;;23.95;9.40;;;14.60;99.90;;;;;;5047904;28;20037;-77
2021/06/30 05:45:26;;;;;;;26.33;9.68;;;14.60;99.90;;;;;;5051142;28;20033;-76
2021/06/30 05:47:52;;;;;;;28.85;9.68;;;14.60;99.90;;;;;;5049979;28;20040;-75
2021/06/30 05:50:22;;;;;;;29.77;9.77;;;14.60;99.90;;;;;;5050310;28;20048;-78
2021/06/30 05:52:48;;;;;;;27.60;9.95;;;14.70;99.90;;;;;;5049392;28;20047;-78
2021/06/30 05:55:13;;;;;;;29.02;9.00;;;14.70;99.90;;;;;;5068408;28;20033;-78
2021/06/30 05:57:39;;;;;;;23.92;8.93;;;14.70;99.90;;;;;;5067219;28;20049;-77
2021/06/30 06:00:08;;;;;;;26.90;9.32;;;14.80;99.90;;;;;;5043390;28;20052;-78
2021/06/30 06:02:34;;;;;;;35.35;9.93;;;14.80;99.90;;;;;;5050725;28;20056;-78
2021/06/30 06:04:59;;;;;;;28.48;8.95;;;14.80;99.90;;;;;;5047409;28;20082;-78
2021/06/30 06:07:25;;;;;;;20.98;7.97;;;14.90;99.90;;;;;;5050176;28;20037;-79
2021/06/30 06:09:51;;;;;;;28.10;9.35;;;14.90;99.90;;;;;;5050916;28;20030;-78
2021/06/30 06:12:17;;;;;;;21.52;8.50;;;14.90;99.90;;;;;;5031642;28;20090;-79
2021/06/30 06:14:43;;;;;;;21.42;7.40;;;14.90;99.90;;;;;;5051063;28;20080;-78
2021/06/30 06:17:09;;;;;;;24.98;8.43;;;15.00;99.90;;;;;;5049812;28;20485;-78
2021/06/30 06:19:36;;;;;;;27.60;8.77;;;14.90;99.90;;;;;;5050390;28;20033;-78
2021/06/30 06:22:05;;;;;;;19.27;8.23;;;14.90;99.90;;;;;;5032548;28;20095;-78
2021/06/30 06:24:31;;;;;;;26.50;8.25;;;14.90;99.90;;;;;;5046818;28;20105;-78
2021/06/30 06:26:57;;;;;;;29.77;8.82;;;14.90;99.90;;;;;;5043416;28;20477;-78
2021/06/30 06:29:24;;;;;;;30.90;8.80;;;15.00;99.90;;;;;;5047416;28;20037;-77
2021/06/30 06:31:50;;;;;;;25.60;9.35;;;15.00;99.90;;;;;;5055226;28;20033;-78
2021/06/30 06:34:20;;;;;;;30.63;9.38;;;15.00;99.90;;;;;;5054452;28;20052;-77
2021/06/30 06:36:50;;;;;;;26.67;9.18;;;14.90;99.90;;;;;;5065573;28;20053;-78
2021/06/30 06:39:18;;;;;;;28.15;9.02;;;15.00;99.90;;;;;;5053671;28;20029;-77
2021/06/30 06:41:44;;;;;;;30.20;9.13;;;14.90;99.90;;;;;;5053853;28;20037;-78
2021/06/30 06:44:10;;;;;;;23.35;8.98;;;14.90;99.90;;;;;;5052993;28;20342;-79
2021/06/30 06:46:38;;;;;;;27.98;9.55;;;14.90;99.90;;;;;;5053547;28;20447;-79
2021/06/30 06:49:05;;;;;;;28.15;10.30;;;14.90;99.90;;;;;;5054089;28;20384;-78
2021/06/30 06:51:31;;;;;;;25.98;8.80;;;15.00;99.90;;;;;;5059528;28;20100;-76
2021/06/30 06:54:16;;;;;;;20.98;9.23;;;15.00;99.90;;;;;;5090005;28;20060;-79
2021/06/30 06:56:41;;;;;;;23.80;8.23;;;15.00;99.90;;;;;;5060301;28;20172;-79
2021/06/30 06:59:07;;;;;;;20.10;8.50;;;15.00;99.90;;;;;;5081159;28;20041;-79
2021/06/30 07:01:33;;;;;;;24.98;9.35;;;15.00;99.90;;;;;;5071153;28;20056;-79
2021/06/30 07:03:58;;;;;;;32.75;8.43;;;15.00;99.90;;;;;;5073247;28;20051;-77
2021/06/30 07:06:24;;;;;;;25.23;8.73;;;15.00;99.90;;;;;;5072262;28;20056;-80
2021/06/30 07:16:12;;;;;;;22.38;8.13;;;15.00;99.90;;;;;;5037425;28;20452;-80
2021/06/30 07:18:39;;;;;;;20.17;7.05;;;15.00;99.90;;;;;;5056008;28;20076;-80
2021/06/30 07:21:08;;;;;;;23.75;7.47;;;15.00;99.90;;;;;;5089895;28;20064;-80
2021/06/30 07:23:34;;;;;;;21.02;7.10;;;15.00;99.90;;;;;;5055236;28;20057;-81
2021/06/30 07:25:59;;;;;;;19.05;6.47;;;15.00;99.90;;;;;;5053715;28;20111;-80
2021/06/30 07:28:26;;;;;;;20.90;6.82;;;15.00;99.90;;;;;;5050628;28;20052;-80
2021/06/30 07:30:52;;;;;;;17.88;6.88;;;15.00;99.90;;;;;;5054290;28;20087;-81
2021/06/30 07:33:18;;;;;;;26.40;6.78;;;15.00;99.90;;;;;;5051863;28;20037;-82
2021/06/30 07:35:44;;;;;;;18.30;7.00;;;15.10;99.90;;;;;;5036703;28;20445;-82
2021/06/30 07:38:10;;;;;;;23.33;7.25;;;15.00;99.90;;;;;;5053461;28;20033;-82
2021/06/30 07:40:36;;;;;;;19.60;6.47;;;15.10;99.90;;;;;;5054017;28;20453;-77
2021/06/30 07:43:04;;;;;;;19.42;6.10;;;15.10;99.90;;;;;;5053219;28;20388;-77
2021/06/30 07:45:30;;;;;;;20.02;6.63;;;15.10;99.90;;;;;;5056675;28;20476;-77
2021/06/30 07:47:56;;;;;;;18.15;5.82;;;15.10;99.90;;;;;;5062198;28;20083;-78
2021/06/30 07:50:22;;;;;;;17.83;6.18;;;15.10;99.90;;;;;;5065023;28;20063;-75
2021/06/30 07:52:48;;;;;;;21.17;6.40;;;15.10;99.90;;;;;;5079035;28;20114;-75
2021/06/30 07:55:18;;;;;;;17.83;6.43;;;15.20;99.90;;;;;;5084042;28;20056;-77
2021/06/30 07:57:44;;;;;;;17.95;6.60;;;15.20;99.90;;;;;;5061471;28;20065;-78
2021/06/30 08:00:11;;;;;;;21.10;6.72;;;15.10;99.90;;;;;;5051254;28;20045;-77
2021/06/30 08:02:37;;;;;;;17.58;6.93;;;15.10;99.90;;;;;;5050396;28;20151;-77
2021/06/30 08:05:04;;;;;;;21.83;6.65;;;15.10;99.90;;;;;;5070080;28;20036;-77
2021/06/30 08:07:30;;;;;;;13.93;5.90;;;15.10;99.90;;;;;;5047491;28;20045;-76
2021/06/30 08:09:56;;;;;;;18.70;6.22;;;15.00;99.90;;;;;;5052002;28;20037;-76
2021/06/30 08:12:22;;;;;;;19.83;6.65;;;15.00;99.90;;;;;;5052118;28;20078;-77
2021/06/30 08:14:49;;;;;;;13.07;4.90;;;15.00;99.90;;;;;;5051857;28;20117;-77
2021/06/30 08:17:15;;;;;;;15.63;5.82;;;15.00;99.90;;;;;;5049717;28;20433;-77
2021/06/30 08:19:41;;;;;;;16.15;6.22;;;14.90;99.90;;;;;;5051526;28;20075;-79
2021/06/30 08:22:10;;;;;;;17.83;5.65;;;15.00;99.90;;;;;;5046471;28;20127;-77
2021/06/30 08:24:41;;;;;;;17.25;5.95;;;15.00;99.90;;;;;;5050862;28;20041;-78
2021/06/30 08:27:08;;;;;;;16.92;5.93;;;15.00;99.90;;;;;;5069547;28;20044;-77
2021/06/30 08:29:34;;;;;;;15.68;6.30;;;15.10;99.90;;;;;;5039742;28;20038;-76
2021/06/30 08:32:00;;;;;;;18.17;6.25;;;15.10;99.90;;;;;;5051943;28;20041;-76
2021/06/30 08:34:27;;;;;;;12.65;6.03;;;15.00;99.90;;;;;;5069168;28;20061;-77
2021/06/30 08:37:06;;;;;;;20.13;6.55;;;15.00;99.90;;;;;;5052522;28;20044;-76
2021/06/30 08:39:33;;;;;;;17.98;6.50;;;15.00;99.90;;;;;;5052936;28;20049;-77
2021/06/30 08:42:00;;;;;;;22.40;6.82;;;15.00;99.90;;;;;;5051436;28;20029;-77
2021/06/30 08:44:26;;;;;;;18.52;6.40;;;15.00;99.90;;;;;;5036236;28;20047;-77
2021/06/30 08:46:56;;;;;;;15.40;6.43;;;15.10;99.90;;;;;;5052873;28;20403;-77
2021/06/30 08:49:26;;;;;;;13.38;5.38;;;15.10;99.90;;;;;;5052979;28;20094;-77
2021/06/30 08:51:54;;;;;;;16.33;5.93;;;15.00;99.90;;;;;;5050772;28;20044;-77
2021/06/30 08:54:21;;;;;;;16.42;6.80;;;15.20;99.90;;;;;;5051214;28;20056;-77
2021/06/30 08:56:48;;;;;;;25.25;7.22;;;15.20;99.90;;;;;;5051019;28;20033;-78
2021/06/30 08:59:14;;;;;;;24.13;7.47;;;15.20;99.90;;;;;;5054081;28;20393;-79
2021/06/30 09:01:41;;;;;;;38.88;8.85;;;15.20;99.90;;;;;;5053567;28;20029;-78
2021/06/30 09:04:10;;;;;;;25.55;7.28;;;15.20;99.90;;;;;;5051914;28;20036;-78
2021/06/30 09:06:35;;;;;;;19.73;6.68;;;15.10;99.90;;;;;;5045263;28;20063;-79
2021/06/30 09:09:04;;;;;;;12.77;6.50;;;15.10;99.90;;;;;;5049709;28;20037;-77
2021/06/30 09:11:31;;;;;;;13.63;6.80;;;15.20;99.90;;;;;;5046816;28;20036;-76
2021/06/30 09:14:32;;;;;;;14.50;6.40;;;15.10;99.90;;;;;;5076004;28;20048;-77
2021/06/30 09:17:16;;;;;;;17.05;6.22;;;15.20;99.90;;;;;;5049307;28;20049;-77
2021/06/30 09:20:05;;;;;;;19.92;6.97;;;15.00;99.90;;;;;;5068625;28;20049;-78
2021/06/30 09:22:52;;;;;;;21.63;7.20;;;15.10;99.90;;;;;;5047314;28;20040;-78
2021/06/30 09:25:36;;;;;;;15.70;7.13;;;15.00;99.90;;;;;;5050888;28;20037;-79
2021/06/30 09:28:21;;;;;;;16.08;7.15;;;15.10;99.90;;;;;;5050602;28;20048;-78
2021/06/30 09:31:19;;;;;;;;;;;15.10;99.90;;;;;;5045523;28;20064;-80
2021/06/30 09:33:51;;;;;;;15.85;5.97;;;15.20;99.90;;;;;;5047311;28;19924;-80
2021/06/30 09:36:17;;;;;;;14.00;6.55;;;15.20;99.90;;;;;;5029835;28;20103;-78
2021/06/30 09:38:44;;;;;;;18.15;6.85;;;15.30;99.90;;;;;;5044896;28;20511;-79
2021/06/30 09:41:23;;;;;;;18.75;7.13;;;15.20;99.90;;;;;;5044763;28;20045;-77
2021/06/30 09:43:49;;;;;;;17.23;7.07;;;15.40;99.90;;;;;;5040439;28;20044;-80
2021/06/30 09:46:25;;;;;;;22.30;7.00;;;15.20;99.90;;;;;;5045447;28;20526;-79
2021/06/30 09:48:59;;;;;;;15.32;6.03;;;15.10;99.90;;;;;;5030096;28;20730;-77
2021/06/30 09:51:26;;;;;;;17.10;5.95;;;15.30;99.90;;;;;;5050183;28;20203;-77
2021/06/30 09:53:52;;;;;;;16.13;6.40;;;15.40;99.90;;;;;;5049759;28;20116;-77
2021/06/30 09:59:23;;;;;;;19.33;6.97;;;15.20;99.90;;;;;;5049452;28;20140;-77
2021/06/30 10:01:58;;;;;;;19.83;6.95;;;15.30;99.90;;;;;;5031932;28;20480;-78
2021/06/30 10:04:31;;;;;;;;;;;15.50;99.90;;;;;;5033270;28;20041;-78
2021/06/30 10:06:59;;;;;;;14.90;6.07;;;15.50;99.90;;;;;;5048253;28;19924;-76
2021/06/30 10:09:26;;;;;;;19.05;6.57;;;15.40;99.90;;;;;;5040568;28;20057;-77
2021/06/30 10:11:59;;;;;;;21.92;7.38;;;15.50;99.90;;;;;;5060795;28;20116;-77
2021/06/30 10:14:26;;;;;;;16.60;7.15;;;15.30;99.90;;;;;;5048889;28;20033;-77
2021/06/30 10:16:52;;;;;;;22.83;7.13;;;15.30;99.90;;;;;;5044586;28;20095;-77
2021/06/30 10:19:19;;;;;;;16.17;6.25;;;15.50;99.90;;;;;;5042183;28;20060;-77
2021/06/30 10:21:46;;;;;;;14.90;5.80;;;15.80;99.90;;;;;;5049337;28;20400;-76
2021/06/30 10:24:16;;;;;;;19.33;6.55;;;15.90;99.90;;;;;;5049839;28;20044;-78
2021/06/30 10:26:42;;;;;;;11.85;5.43;;;15.90;99.90;;;;;;5051916;28;20147;-77
2021/06/30 10:29:09;;;;;;;14.02;6.60;;;16.00;99.90;;;;;;5050097;28;20057;-78
2021/06/30 10:31:36;;;;;;;18.70;7.53;;;16.40;99.90;;;;;;5067847;28;20057;-78
2021/06/30 10:34:07;;;;;;;14.82;6.18;;;16.20;99.90;;;;;;5048807;28;20550;-76
2021/06/30 10:36:53;;;;;;;15.60;6.72;;;16.30;99.90;;;;;;5047826;28;20087;-74
2021/06/30 10:39:37;;;;;;;15.80;6.93;;;16.30;99.90;;;;;;5048850;28;20036;-75
2021/06/30 10:42:21;;;;;;;15.30;6.40;;;16.40;99.90;;;;;;5069891;28;20060;-76
2021/06/30 10:44:52;;;;;;;14.68;5.68;;;16.50;99.90;;;;;;5051140;28;20486;-77
2021/06/30 10:47:45;;;;;;;11.85;5.85;;;16.70;99.90;;;;;;5065189;28;20130;-76
2021/06/30 10:50:17;;;;;;;19.15;6.60;;;16.80;99.90;;;;;;5049855;28;20076;-80
2021/06/30 10:52:44;;;;;;;20.85;6.53;;;16.10;99.90;;;;;;5049253;28;20086;-80
2021/06/30 10:55:41;;;;;;;15.75;6.78;;;15.70;99.90;;;;;;5045360;28;20090;-80
2021/06/30 10:58:17;;;;;;;13.80;5.93;;;15.50;99.90;;;;;;5022905;28;20497;-80
2021/06/30 11:00:54;;;;;;;13.68;5.78;;;15.20;99.90;;;;;;5044933;28;20381;-81
2021/06/30 11:03:51;;;;;;;12.55;5.88;;;15.00;99.90;;;;;;5047707;28;20449;-80
2021/06/30 11:06:25;;;;;;;13.13;5.47;;;14.70;99.90;;;;;;5058924;28;20108;-80
2021/06/30 11:08:59;;;;;;;14.15;5.80;;;14.60;99.90;;;;;;5067043;28;20136;-80
2021/06/30 11:11:27;;;;;;;16.13;6.10;;;14.50;99.90;;;;;;5048804;28;20040;-80
2021/06/30 11:14:03;;;;;;;14.93;5.45;;;14.50;99.90;;;;;;5043580;28;20056;-81
2021/06/30 11:19:08;;;;;;;12.45;5.97;;;14.40;99.90;;;;;;5054114;28;20037;-80
2021/06/30 11:21:53;;;;;;;16.83;7.18;;;14.40;99.90;;;;;;5031847;28;20429;-80
2021/06/30 11:27:06;;;;;;;17.25;6.68;;;14.30;99.90;;;;;;5044404;28;20037;-80
2021/06/30 11:29:42;;;;;;;14.90;6.10;;;14.30;99.90;;;;;;5054149;28;20039;-80
2021/06/30 11:32:31;;;;;;;11.40;5.57;;;14.30;99.90;;;;;;5055626;28;20114;-80
2021/06/30 11:35:09;;;;;;;14.65;5.65;;;14.30;99.90;;;;;;5054732;28;20538;-80
2021/06/30 11:37:45;;;;;;;12.85;6.35;;;14.20;99.90;;;;;;5053528;28;20051;-81
2021/06/30 11:42:47;;;;;;;11.73;5.28;;;14.30;99.90;;;;;;5054638;28;20037;-79
2021/06/30 11:45:26;;;;;;;11.95;5.60;;;14.30;99.90;;;;;;5054766;28;20096;-81
2021/06/30 11:47:54;;;;;;;15.98;6.38;;;14.30;99.90;;;;;;5053050;28;20556;-80
2021/06/30 11:50:44;;;;;;;16.00;5.90;;;14.30;99.90;;;;;;5052003;28;20037;-81
2021/06/30 11:53:10;;;;;;;12.20;6.00;;;14.30;99.90;;;;;;5053516;28;20519;-81
2021/06/30 11:55:41;;;;;;;10.55;5.57;;;14.30;99.90;;;;;;5054908;28;20041;-80
2021/06/30 11:58:08;;;;;;;13.07;6.05;;;14.30;99.90;;;;;;5054175;28;20059;-79
2021/06/30 12:00:40;;;;;;;14.27;6.10;;;14.20;99.90;;;;;;5052417;28;20404;-79
2021/06/30 12:03:06;;;;;;;13.65;6.53;;;14.30;99.90;;;;;;5051835;28;20492;-80
2021/06/30 12:05:35;;;;;;;12.35;6.50;;;14.30;99.90;;;;;;5054437;28;20069;-81
2021/06/30 12:08:03;;;;;;;13.02;7.47;;;14.30;99.90;;;;;;5051613;28;20128;-80
2021/06/30 12:10:31;;;;;;;11.88;6.28;;;14.30;99.90;;;;;;5052947;28;20076;-81
2021/06/30 12:13:01;;;;;;;11.52;7.05;;;14.30;99.90;;;;;;5075266;28;20053;-79
2021/06/30 12:15:28;;;;;;;11.68;6.78;;;14.40;99.90;;;;;;5087055;28;20085;-81
2021/06/30 12:17:56;;;;;;;13.13;6.88;;;14.40;99.90;;;;;;5052881;28;20068;-79
2021/06/30 12:20:24;;;;;;;12.80;7.10;;;14.40;99.90;;;;;;5053819;28;20069;-81
2021/06/30 12:22:50;;;;;;;12.77;7.30;;;14.30;99.90;;;;;;5053506;28;20060;-80
2021/06/30 12:25:16;;;;;;;15.57;7.57;;;14.40;99.90;;;;;;5052312;28;20137;-81
2021/06/30 12:27:56;;;;;;;13.48;7.75;;;14.50;99.90;;;;;;5052794;28;20408;-78
2021/06/30 12:30:25;;;;;;;9.95;7.18;;;14.50;99.90;;;;;;5051791;28;20056;-79
2021/06/30 12:33:09;;;;;;;15.70;6.57;;;14.40;99.90;;;;;;5051584;28;20061;-78
2021/06/30 12:35:47;;;;;;;13.00;6.18;;;14.50;99.90;;;;;;5042945;28;20048;-80
2021/06/30 12:38:31;;;;;;;13.80;6.10;;;14.60;99.90;;;;;;5049880;28;20043;-80
2021/06/30 12:41:08;;;;;;;14.80;6.50;;;14.70;99.90;;;;;;5048570;28;20104;-79
2021/06/30 12:43:34;;;;;;;13.05;5.78;;;14.70;99.90;;;;;;5046819;28;20044;-80
2021/06/30 12:46:00;;;;;;;10.60;6.50;;;14.80;99.90;;;;;;5051457;28;20049;-79
2021/06/30 12:48:33;;;;;;;11.43;5.97;;;14.80;99.90;;;;;;5053472;28;20091;-79
2021/06/30 12:51:14;;;;;;;8.07;5.43;;;14.70;99.90;;;;;;5045700;28;20372;-79
2021/06/30 12:53:41;;;;;;;13.35;5.28;;;14.80;99.90;;;;;;5051543;28;20085;-80
2021/06/30 12:56:13;;;;;;;12.48;5.93;;;14.70;99.90;;;;;;5050573;28;20049;-79
2021/06/30 12:58:46;;;;;;;13.25;6.03;;;14.60;99.90;;;;;;5050693;28;20119;-78
2021/06/30 13:01:24;;;;;;;16.08;6.70;;;14.60;99.90;;;;;;5051568;28;20091;-77